Time;durP1;ratioP1;P1;durP2;ratioP2;P2;SDS_P1;SDS_P2;PMS_P1;PMS_P2;Temp;Humidity;BMP_temperature;BMP_pressure;BME280_temperature;BME280_humidity;BME280_pressure;Samples;Min_cycle;Max_cycle;Signal;HPM_P1;HPM_P2
2021/06/07 00:00:18;;;;;;;3.33;3.10;;;;;23.30;101198.00;;;;2043112;29;20209;-71
2021/06/07 00:01:19;;;;;;;3.25;3.05;;;;;23.30;101193.00;;;;2034688;29;20297;-71
2021/06/07 00:02:20;;;;;;;3.90;3.60;;;;;23.40;101197.00;;;;2038839;29;20351;-71
2021/06/07 00:03:20;;;;;;;3.50;3.30;;;;;23.30;101180.00;;;;2038672;29;20484;-71
2021/06/07 00:04:21;;;;;;;3.33;3.13;;;;;23.30;101199.00;;;;2035052;29;20746;-71
2021/06/07 00:05:23;;;;;;;3.45;3.25;;;;;23.30;101197.00;;;;2038306;29;20220;-71
2021/06/07 00:06:23;;;;;;;3.38;3.17;;;;;23.30;101202.00;;;;2034624;29;20694;-71
2021/06/07 00:07:23;;;;;;;3.47;3.27;;;;;23.30;101194.00;;;;2034627;29;20212;-71
2021/06/07 00:08:24;;;;;;;3.30;3.10;;;;;23.30;101205.00;;;;2042456;29;20611;-71
2021/06/07 00:09:24;;;;;;;3.50;3.30;;;;;23.30;101196.00;;;;2042604;28;20592;-71
2021/06/07 00:10:24;;;;;;;3.43;3.23;;;;;23.30;101200.00;;;;2036047;29;20227;-71
2021/06/07 00:11:25;;;;;;;3.27;3.07;;;;;23.30;101136.00;;;;2038260;29;20217;-71
2021/06/07 00:12:25;;;;;;;3.60;3.30;;;;;23.30;101201.00;;;;2042794;29;20217;-71
2021/06/07 00:13:26;;;;;;;3.23;3.03;;;;;23.30;101189.00;;;;2034914;29;20633;-71
2021/06/07 00:14:30;;;;;;;3.20;3.00;;;;;23.30;101199.00;;;;2043081;29;20305;-71
2021/06/07 00:15:31;;;;;;;3.28;3.08;;;;;23.30;101195.00;;;;2043582;28;20224;-71
2021/06/07 00:16:31;;;;;;;3.90;3.60;;;;;23.30;101191.00;;;;2042647;29;20793;-71
2021/06/07 00:17:32;;;;;;;3.40;3.20;;;;;23.30;101193.00;;;;2034376;29;20228;-71
2021/06/07 00:18:33;;;;;;;3.80;3.53;;;;;23.30;101204.00;;;;2042404;29;20231;-71
2021/06/07 00:19:34;;;;;;;3.50;3.30;;;;;23.30;101199.00;;;;2034583;29;20227;-71
2021/06/07 00:20:39;;;;;;;3.80;3.50;;;;;23.30;101191.00;;;;2035351;29;20268;-71
2021/06/07 00:21:40;;;;;;;3.15;2.95;;;;;23.30;101207.00;;;;2045329;29;20231;-71
2021/06/07 00:22:40;;;;;;;3.77;3.47;;;;;23.30;101201.00;;;;2045542;28;20327;-71
2021/06/07 00:23:41;;;;;;;3.53;3.33;;;;;23.30;101185.00;;;;2043038;28;20247;-71
2021/06/07 00:24:41;;;;;;;3.60;3.40;;;;;23.30;101203.00;;;;2033796;29;20236;-71
2021/06/07 00:25:41;;;;;;;3.80;3.40;;;;;23.30;101204.00;;;;2034155;29;20216;-71
2021/06/07 00:26:42;;;;;;;3.60;3.40;;;;;23.30;101203.00;;;;2042674;29;20225;-71
2021/06/07 00:27:43;;;;;;;3.73;3.13;;;;;23.30;101198.00;;;;2042352;28;20255;-70
2021/06/07 00:28:43;;;;;;;3.70;3.40;;;;;23.30;101201.00;;;;2043053;29;20222;-70
2021/06/07 00:29:43;;;;;;;3.40;3.20;;;;;23.30;101200.00;;;;2043052;29;20670;-69
2021/06/07 00:30:44;;;;;;;3.30;3.10;;;;;23.30;101201.00;;;;2042946;29;20214;-70
2021/06/07 00:31:44;;;;;;;3.23;3.03;;;;;23.30;101204.00;;;;2042411;29;20218;-70
2021/06/07 00:32:44;;;;;;;3.00;2.80;;;;;23.30;101209.00;;;;2043493;28;20213;-71
2021/06/07 00:33:45;;;;;;;3.30;3.10;;;;;23.30;101204.00;;;;2043223;28;20283;-71
2021/06/07 00:34:45;;;;;;;3.27;3.00;;;;;23.30;101202.00;;;;2043584;28;20205;-70
2021/06/07 00:35:45;;;;;;;3.10;2.90;;;;;23.30;101202.00;;;;2044845;28;20212;-71
2021/06/07 00:36:46;;;;;;;3.70;3.50;;;;;23.30;101201.00;;;;2044624;28;20220;-71
2021/06/07 00:37:46;;;;;;;3.50;3.30;;;;;23.30;101198.00;;;;2042352;29;21354;-71
2021/06/07 00:38:46;;;;;;;3.40;3.20;;;;;23.30;101199.00;;;;2044048;29;20630;-68
2021/06/07 00:39:47;;;;;;;3.30;3.10;;;;;23.30;101203.00;;;;2044653;28;20592;-71
2021/06/07 00:40:47;;;;;;;3.73;3.53;;;;;23.30;101199.00;;;;2045301;28;20596;-71
2021/06/07 00:41:48;;;;;;;3.47;3.27;;;;;23.30;101196.00;;;;2044672;28;20752;-71
2021/06/07 00:42:49;;;;;;;3.38;3.17;;;;;23.30;101204.00;;;;2044981;28;20244;-71
2021/06/07 00:44:09;;;;;;;3.60;3.40;;;;;23.30;101202.00;;;;2045178;28;20213;-70
2021/06/07 00:45:13;;;;;;;2.92;2.72;;;;;23.30;101204.00;;;;2044104;28;20216;-71
2021/06/07 00:46:13;;;;;;;3.50;3.20;;;;;23.30;101204.00;;;;2043797;29;20220;-71
2021/06/07 00:47:14;;;;;;;3.23;3.03;;;;;23.30;101181.00;;;;2036030;29;20226;-71
2021/06/07 00:48:16;;;;;;;3.10;2.90;;;;;23.30;101196.00;;;;2036627;29;20217;-71
2021/06/07 00:49:16;;;;;;;3.60;3.40;;;;;23.30;101206.00;;;;2040107;29;20695;-70
2021/06/07 00:50:22;;;;;;;4.23;3.93;;;;;23.30;101201.00;;;;2039678;29;20209;-70
2021/06/07 00:51:22;;;;;;;3.83;3.60;;;;;23.30;101199.00;;;;2031371;29;20213;-71
2021/06/07 00:52:23;;;;;;;3.63;3.33;;;;;23.30;101198.00;;;;2036961;29;20561;-71
2021/06/07 00:53:24;;;;;;;3.72;3.45;;;;;23.30;101202.00;;;;2044402;28;20226;-71
2021/06/07 00:54:24;;;;;;;3.17;2.97;;;;;23.30;101199.00;;;;2044276;28;20220;-71
2021/06/07 00:55:26;;;;;;;3.23;3.03;;;;;23.30;101201.00;;;;2047156;29;20236;-71
2021/06/07 00:56:26;;;;;;;3.40;3.20;;;;;23.30;101206.00;;;;2039344;29;20228;-70
2021/06/07 00:57:26;;;;;;;3.40;3.20;;;;;23.30;101203.00;;;;2043402;28;20217;-71
2021/06/07 00:58:41;;;;;;;3.77;3.50;;;;;23.30;101191.00;;;;2043375;29;20221;-71
2021/06/07 00:59:41;;;;;;;2.88;2.65;;;;;23.30;101197.00;;;;2043855;29;20713;-71
2021/06/07 01:00:42;;;;;;;3.93;3.63;;;;;23.30;101197.00;;;;2044107;29;20272;-71
2021/06/07 01:01:42;;;;;;;3.30;3.10;;;;;23.30;101198.00;;;;2035621;29;20223;-70
2021/06/07 01:02:43;;;;;;;3.20;3.00;;;;;23.30;101196.00;;;;2035991;29;20241;-71
2021/06/07 01:03:43;;;;;;;3.20;3.00;;;;;23.30;101198.00;;;;2043729;29;20216;-71
2021/06/07 01:04:44;;;;;;;3.10;2.90;;;;;23.30;101195.00;;;;2044537;28;20308;-71
2021/06/07 01:05:45;;;;;;;2.93;2.73;;;;;23.30;101193.00;;;;2036023;29;20283;-71
2021/06/07 01:06:46;;;;;;;3.88;3.58;;;;;23.30;101187.00;;;;2035999;29;20682;-71
2021/06/07 01:07:46;;;;;;;3.20;3.00;;;;;23.30;101195.00;;;;2043863;29;20314;-70
2021/06/07 01:08:46;;;;;;;3.53;3.23;;;;;23.30;101193.00;;;;2043842;29;20225;-71
2021/06/07 01:09:47;;;;;;;3.43;3.23;;;;;23.30;101199.00;;;;2036430;29;20213;-71
2021/06/07 01:10:47;;;;;;;3.00;2.80;;;;;23.30;101207.00;;;;2043642;29;20811;-71
2021/06/07 01:11:48;;;;;;;3.30;3.10;;;;;23.30;101200.00;;;;2044323;28;20696;-71
2021/06/07 01:12:48;;;;;;;3.53;3.30;;;;;23.30;101200.00;;;;2045147;28;20823;-71
2021/06/07 01:13:49;;;;;;;3.73;3.53;;;;;23.30;101199.00;;;;2044907;28;20557;-71
2021/06/07 01:14:51;;;;;;;3.30;3.10;;;;;23.30;101194.00;;;;2043325;29;20247;-70
2021/06/07 01:15:52;;;;;;;3.40;3.20;;;;;23.30;101179.00;;;;2043734;29;20470;-70
2021/06/07 01:16:52;;;;;;;3.80;3.50;;;;;23.30;101193.00;;;;2043467;29;20240;-70
2021/06/07 01:17:53;;;;;;;3.23;3.03;;;;;23.30;101199.00;;;;2035665;29;20780;-71
2021/06/07 01:18:53;;;;;;;3.00;2.80;;;;;23.30;101197.00;;;;2043672;29;20700;-70
2021/06/07 01:19:54;;;;;;;4.00;3.70;;;;;23.30;101200.00;;;;2037822;29;20265;-71
2021/06/07 01:21:06;;;;;;;3.13;2.93;;;;;23.30;101190.00;;;;2044475;29;20201;-71
2021/06/07 01:22:06;;;;;;;3.05;2.85;;;;;23.30;101196.00;;;;2034865;29;20201;-71
2021/06/07 01:23:06;;;;;;;3.40;3.20;;;;;23.30;101198.00;;;;2037079;29;20792;-71
2021/06/07 01:24:07;;;;;;;2.87;2.67;;;;;23.30;101194.00;;;;2044946;28;20224;-71
2021/06/07 01:25:10;;;;;;;3.40;3.20;;;;;23.30;101198.00;;;;2044179;29;20222;-71
2021/06/07 01:26:11;;;;;;;3.42;3.17;;;;;23.30;101191.00;;;;2036820;29;20284;-71
2021/06/07 01:27:11;;;;;;;3.60;3.30;;;;;23.30;101188.00;;;;2036349;29;21113;-71
2021/06/07 01:28:13;;;;;;;3.00;2.80;;;;;23.30;101189.00;;;;2036186;29;20213;-71
2021/06/07 01:29:14;;;;;;;3.30;3.10;;;;;23.30;101196.00;;;;2043760;29;20304;-71
2021/06/07 01:30:16;;;;;;;3.60;3.30;;;;;23.30;101198.00;;;;2035694;29;20232;-71
2021/06/07 01:31:17;;;;;;;3.10;2.90;;;;;23.30;101185.00;;;;2035487;29;20232;-71
2021/06/07 01:32:17;;;;;;;3.70;3.40;;;;;23.30;101199.00;;;;2035741;29;20678;-71
2021/06/07 01:33:19;;;;;;;3.63;3.33;;;;;23.30;101192.00;;;;2035884;29;20454;-71
2021/06/07 01:34:19;;;;;;;3.15;2.95;;;;;23.30;101194.00;;;;2035999;29;20272;-71
2021/06/07 01:35:20;;;;;;;4.03;3.73;;;;;23.30;101193.00;;;;2044113;29;20328;-71
2021/06/07 01:36:20;;;;;;;3.27;3.07;;;;;23.30;101195.00;;;;2044852;28;20213;-71
2021/06/07 01:37:20;;;;;;;3.57;3.37;;;;;23.30;101191.00;;;;2044048;29;20225;-71
2021/06/07 01:38:21;;;;;;;3.13;2.93;;;;;23.30;101193.00;;;;2043945;29;20788;-71
2021/06/07 01:39:26;;;;;;;2.87;2.67;;;;;23.30;101185.00;;;;2044646;28;20220;-71
2021/06/07 01:40:29;;;;;;;3.45;3.25;;;;;23.30;101191.00;;;;2043888;29;20271;-71
2021/06/07 01:41:29;;;;;;;3.42;3.22;;;;;23.30;101194.00;;;;2043676;28;20222;-71
2021/06/07 01:42:30;;;;;;;3.10;2.90;;;;;23.30;101192.00;;;;2047739;29;20220;-71
2021/06/07 01:43:31;;;;;;;3.20;3.00;;;;;23.30;101184.00;;;;2046432;29;20278;-71
2021/06/07 01:44:31;;;;;;;3.50;3.17;;;;;23.30;101183.00;;;;2043641;29;20235;-71
2021/06/07 01:45:32;;;;;;;3.50;3.30;;;;;23.30;101176.00;;;;2043131;29;20811;-71
2021/06/07 01:46:33;;;;;;;3.60;3.40;;;;;23.30;101187.00;;;;2035444;29;20222;-71
2021/06/07 01:47:33;;;;;;;3.27;3.07;;;;;23.30;101180.00;;;;2035581;29;20294;-71
2021/06/07 01:48:33;;;;;;;3.53;3.23;;;;;23.30;101186.00;;;;2044357;28;20225;-71
2021/06/07 01:49:34;;;;;;;3.43;3.23;;;;;23.30;101185.00;;;;2044015;29;20216;-70
2021/06/07 01:50:35;;;;;;;3.27;3.07;;;;;23.30;101182.00;;;;2047278;29;20215;-71
2021/06/07 01:51:35;;;;;;;4.03;3.73;;;;;23.30;101181.00;;;;2046188;28;20239;-71
2021/06/07 01:52:43;;;;;;;2.93;2.73;;;;;23.30;101185.00;;;;2046360;28;21177;-71
2021/06/07 01:53:46;;;;;;;3.50;3.20;;;;;23.30;101176.00;;;;2043607;29;20219;-71
2021/06/07 01:54:46;;;;;;;3.83;3.53;;;;;23.30;101189.00;;;;2036840;29;20225;-71
2021/06/07 01:55:48;;;;;;;3.43;3.23;;;;;23.30;101185.00;;;;2043607;29;20226;-71
2021/06/07 01:56:49;;;;;;;3.28;3.08;;;;;23.30;101185.00;;;;2044552;28;20217;-71
2021/06/07 01:57:50;;;;;;;3.43;3.23;;;;;23.30;101189.00;;;;2047548;29;20220;-71
2021/06/07 01:58:50;;;;;;;3.60;3.40;;;;;23.30;101184.00;;;;2039802;29;20221;-71
2021/06/07 01:59:50;;;;;;;3.63;3.33;;;;;23.30;101183.00;;;;2043991;29;20323;-71
2021/06/07 02:00:55;;;;;;;3.97;3.67;;;;;23.30;101185.00;;;;2044612;28;20228;-69
2021/06/07 02:01:55;;;;;;;3.05;2.85;;;;;23.30;101187.00;;;;2043650;28;20220;-71
2021/06/07 02:02:55;;;;;;;3.40;3.20;;;;;23.30;101185.00;;;;2044077;28;20267;-71
2021/06/07 02:03:56;;;;;;;3.67;3.47;;;;;23.30;101185.00;;;;2044041;28;20274;-71
2021/06/07 02:04:56;;;;;;;3.60;3.37;;;;;23.30;101186.00;;;;2044184;28;20240;-71
2021/06/07 02:05:58;;;;;;;3.53;3.33;;;;;23.30;101187.00;;;;2044028;28;20584;-71
2021/06/07 02:06:58;;;;;;;3.90;3.63;;;;;23.30;101184.00;;;;2021989;29;20217;-71
2021/06/07 02:08:00;;;;;;;3.20;3.00;;;;;23.30;101178.00;;;;2027543;29;20221;-71
2021/06/07 02:09:00;;;;;;;3.00;2.80;;;;;23.30;101181.00;;;;2044059;28;20279;-71
2021/06/07 02:10:01;;;;;;;3.30;3.10;;;;;23.30;101192.00;;;;2043361;29;20778;-71
2021/06/07 02:11:08;;;;;;;3.30;3.10;;;;;23.30;101158.00;;;;2042747;29;20663;-71
2021/06/07 02:12:09;;;;;;;3.03;2.83;;;;;23.30;101185.00;;;;2034943;29;20279;-71
2021/06/07 02:13:09;;;;;;;3.83;3.53;;;;;23.30;101184.00;;;;2035486;29;20216;-70
2021/06/07 02:14:10;;;;;;;3.23;3.03;;;;;23.30;101184.00;;;;2042213;29;20467;-71
2021/06/07 02:15:10;;;;;;;4.13;3.83;;;;;23.30;101185.00;;;;2042972;29;20224;-71
2021/06/07 02:16:18;;;;;;;3.80;3.50;;;;;23.30;101184.00;;;;2042949;29;20217;-71
2021/06/07 02:17:19;;;;;;;3.35;3.15;;;;;23.30;101185.00;;;;2045885;28;21242;-71
2021/06/07 02:18:19;;;;;;;3.30;3.10;;;;;23.30;101183.00;;;;2043888;28;20228;-71
2021/06/07 02:19:19;;;;;;;3.47;3.27;;;;;23.30;101185.00;;;;2043777;28;20217;-71
2021/06/07 02:20:21;;;;;;;3.40;3.20;;;;;23.30;101191.00;;;;2046671;28;21147;-71
2021/06/07 02:21:23;;;;;;;3.72;3.53;;;;;23.30;101187.00;;;;2044546;29;20247;-71
2021/06/07 02:22:24;;;;;;;3.70;3.40;;;;;23.30;101185.00;;;;2036461;29;20218;-71
2021/06/07 02:23:24;;;;;;;3.33;3.13;;;;;23.30;101186.00;;;;2043197;29;20227;-71
2021/06/07 02:24:24;;;;;;;3.63;3.43;;;;;23.30;101188.00;;;;2043165;29;20240;-71
2021/06/07 02:25:25;;;;;;;3.20;3.00;;;;;23.30;101188.00;;;;2042571;29;20228;-71
2021/06/07 02:26:25;;;;;;;3.83;3.57;;;;;23.30;101186.00;;;;2043689;28;20216;-71
2021/06/07 02:27:26;;;;;;;3.90;3.60;;;;;23.30;101196.00;;;;2043139;28;20231;-71
2021/06/07 02:28:26;;;;;;;3.63;3.43;;;;;23.30;101141.00;;;;2043704;29;20228;-72
2021/06/07 02:29:26;;;;;;;3.53;3.27;;;;;23.30;101188.00;;;;2043744;29;20264;-70
2021/06/07 02:30:28;;;;;;;3.30;3.10;;;;;23.30;101186.00;;;;2043854;29;20694;-71
2021/06/07 02:31:29;;;;;;;4.03;3.72;;;;;23.30;101186.00;;;;2043776;28;20681;-71
2021/06/07 02:32:29;;;;;;;3.20;3.00;;;;;23.30;101130.00;;;;2043710;29;20220;-71
2021/06/07 02:33:29;;;;;;;3.90;3.60;;;;;23.30;101182.00;;;;2043591;29;20639;-71
2021/06/07 02:34:30;;;;;;;3.53;3.30;;;;;23.30;101187.00;;;;2043196;29;20656;-71
2021/06/07 02:35:30;;;;;;;3.43;3.23;;;;;23.30;101186.00;;;;2043095;29;20699;-71
2021/06/07 02:36:31;;;;;;;3.33;3.13;;;;;23.30;101186.00;;;;2043227;29;20322;-71
2021/06/07 02:37:32;;;;;;;3.78;3.58;;;;;23.30;101188.00;;;;2034876;29;20724;-70
2021/06/07 02:38:32;;;;;;;3.23;3.03;;;;;23.30;101186.00;;;;2042874;29;20220;-70
2021/06/07 02:39:32;;;;;;;3.87;3.67;;;;;23.30;101191.00;;;;2043833;28;20213;-69
2021/06/07 02:40:33;;;;;;;3.70;3.40;;;;;23.30;101187.00;;;;2044356;28;20300;-70
2021/06/07 02:41:34;;;;;;;3.17;2.97;;;;;23.30;101185.00;;;;2043103;29;20217;-71
2021/06/07 02:42:36;;;;;;;3.57;3.27;;;;;23.30;101178.00;;;;2043710;29;20218;-71
2021/06/07 02:43:36;;;;;;;3.40;3.20;;;;;23.30;101188.00;;;;2035379;29;20228;-71
2021/06/07 02:44:37;;;;;;;3.30;3.10;;;;;23.30;101192.00;;;;2035726;29;20213;-71
2021/06/07 02:45:37;;;;;;;3.80;3.60;;;;;23.30;101185.00;;;;2043572;29;20216;-71
2021/06/07 02:46:37;;;;;;;3.27;3.07;;;;;23.30;101187.00;;;;2043209;29;20744;-70
2021/06/07 02:47:38;;;;;;;3.63;3.43;;;;;23.30;101186.00;;;;2043549;28;20228;-71
2021/06/07 02:48:39;;;;;;;3.20;3.00;;;;;23.30;101182.00;;;;2043123;29;20714;-71
2021/06/07 02:49:39;;;;;;;3.60;3.40;;;;;23.30;101193.00;;;;2043177;29;20236;-70
2021/06/07 02:50:43;;;;;;;3.27;3.07;;;;;23.20;101193.00;;;;2044862;28;20704;-70
2021/06/07 02:51:43;;;;;;;3.08;2.88;;;;;23.30;101186.00;;;;2046339;28;20622;-71
2021/06/07 02:52:49;;;;;;;3.97;3.57;;;;;23.30;101195.00;;;;2045930;29;20204;-71
2021/06/07 02:53:50;;;;;;;3.22;3.03;;;;;23.30;101197.00;;;;2035731;29;20251;-71
2021/06/07 02:54:50;;;;;;;3.37;3.17;;;;;23.30;101187.00;;;;2043180;29;20240;-71
2021/06/07 02:55:52;;;;;;;3.27;3.07;;;;;23.30;101194.00;;;;2043385;28;20226;-71
2021/06/07 02:56:52;;;;;;;4.22;3.92;;;;;23.30;101186.00;;;;2043477;28;20699;-71
2021/06/07 02:57:53;;;;;;;3.30;3.10;;;;;23.30;101188.00;;;;2042945;28;20219;-70
2021/06/07 02:58:53;;;;;;;4.20;3.77;;;;;23.30;101192.00;;;;2043587;28;20224;-70
2021/06/07 02:59:53;;;;;;;3.80;3.50;;;;;23.30;101197.00;;;;2043801;29;20565;-71
2021/06/07 03:00:56;;;;;;;3.73;3.43;;;;;23.30;101194.00;;;;2042902;29;20665;-71
2021/06/07 03:01:56;;;;;;;3.63;3.42;;;;;23.30;101187.00;;;;2042718;29;20249;-71
2021/06/07 03:02:57;;;;;;;3.33;3.13;;;;;23.30;101189.00;;;;2044124;28;20225;-71
2021/06/07 03:03:57;;;;;;;3.95;3.65;;;;;23.30;101184.00;;;;2043503;29;20237;-71
2021/06/07 03:04:58;;;;;;;4.17;3.87;;;;;23.30;101190.00;;;;2043567;29;20657;-71
2021/06/07 03:05:58;;;;;;;3.83;3.53;;;;;23.30;101190.00;;;;2044259;28;20223;-70
2021/06/07 03:06:59;;;;;;;3.93;3.67;;;;;23.30;101194.00;;;;2043194;28;20287;-71
2021/06/07 03:07:59;;;;;;;3.73;3.53;;;;;23.30;101196.00;;;;2043066;29;20941;-71
2021/06/07 03:09:00;;;;;;;3.87;3.57;;;;;23.30;101193.00;;;;2034817;29;20672;-71
2021/06/07 03:10:00;;;;;;;3.90;3.60;;;;;23.30;101196.00;;;;2035116;29;20664;-71
2021/06/07 03:11:04;;;;;;;3.90;3.60;;;;;23.30;101194.00;;;;2042108;29;20747;-71
2021/06/07 03:12:06;;;;;;;3.15;2.95;;;;;23.30;101190.00;;;;2042895;29;20228;-71
2021/06/07 03:13:06;;;;;;;3.58;3.33;;;;;23.30;101202.00;;;;2043740;28;20221;-71
2021/06/07 03:14:07;;;;;;;3.50;3.30;;;;;23.30;101194.00;;;;2043250;28;20540;-70
2021/06/07 03:15:09;;;;;;;3.90;3.60;;;;;23.30;101196.00;;;;2044202;28;20257;-70
2021/06/07 03:16:09;;;;;;;4.07;3.78;;;;;23.20;101196.00;;;;2035307;29;20216;-71
2021/06/07 03:17:10;;;;;;;3.83;3.63;;;;;23.30;101198.00;;;;2032623;29;20245;-71
2021/06/07 03:18:10;;;;;;;4.20;3.90;;;;;23.30;101192.00;;;;2043540;28;20224;-70
2021/06/07 03:19:10;;;;;;;3.90;3.60;;;;;23.30;101195.00;;;;2042882;29;20231;-71
2021/06/07 03:20:12;;;;;;;3.77;3.47;;;;;23.30;101193.00;;;;2038946;29;20256;-71
2021/06/07 03:21:13;;;;;;;3.90;3.65;;;;;23.30;101187.00;;;;2045029;29;20706;-71
2021/06/07 03:22:13;;;;;;;3.87;3.60;;;;;23.30;101193.00;;;;2045039;29;20295;-71
2021/06/07 03:23:15;;;;;;;3.77;3.57;;;;;23.30;101201.00;;;;2043940;28;20302;-71
2021/06/07 03:24:15;;;;;;;3.85;3.60;;;;;23.30;101192.00;;;;2043715;28;20212;-71
2021/06/07 03:25:16;;;;;;;3.70;3.40;;;;;23.30;101198.00;;;;2043247;28;20270;-71
2021/06/07 03:26:16;;;;;;;3.67;3.47;;;;;23.30;101194.00;;;;2043408;29;20227;-71
2021/06/07 03:27:17;;;;;;;4.03;3.73;;;;;23.30;101197.00;;;;2043261;28;20224;-70
2021/06/07 03:28:18;;;;;;;3.53;3.22;;;;;23.30;101197.00;;;;2042768;29;20227;-71
2021/06/07 03:29:18;;;;;;;4.00;3.70;;;;;23.30;101198.00;;;;2034862;29;20628;-71
2021/06/07 03:30:19;;;;;;;3.33;3.03;;;;;23.30;101194.00;;;;2042796;29;20723;-71
2021/06/07 03:31:20;;;;;;;4.27;3.97;;;;;23.30;101196.00;;;;2041593;28;20729;-71
2021/06/07 03:32:20;;;;;;;4.50;4.10;;;;;23.30;101196.00;;;;2044042;28;20456;-71
2021/06/07 03:33:20;;;;;;;4.57;4.23;;;;;23.30;101194.00;;;;2043878;28;20466;-71
2021/06/07 03:34:21;;;;;;;4.20;3.90;;;;;23.30;101194.00;;;;2043962;28;20213;-71
2021/06/07 03:35:21;;;;;;;4.03;3.73;;;;;23.30;101200.00;;;;2043816;28;20220;-71
2021/06/07 03:36:22;;;;;;;3.93;3.63;;;;;23.20;101199.00;;;;2035254;29;20300;-71
2021/06/07 03:37:22;;;;;;;4.37;4.07;;;;;23.30;101198.00;;;;2034495;29;20213;-71
2021/06/07 03:38:24;;;;;;;4.17;3.87;;;;;23.30;101200.00;;;;2043332;28;20257;-71
2021/06/07 03:39:25;;;;;;;4.18;3.88;;;;;23.30;101198.00;;;;2043075;28;20576;-71
2021/06/07 03:40:27;;;;;;;4.20;3.90;;;;;23.30;101202.00;;;;2043095;28;20242;-71
2021/06/07 03:41:27;;;;;;;3.90;3.60;;;;;23.30;101193.00;;;;2041879;29;20630;-71
2021/06/07 03:42:28;;;;;;;3.80;3.50;;;;;23.30;101197.00;;;;2042722;29;20209;-71
2021/06/07 03:43:32;;;;;;;4.30;4.00;;;;;23.20;101193.00;;;;2043810;28;20228;-70
2021/06/07 03:44:33;;;;;;;4.10;3.80;;;;;23.20;101196.00;;;;2043961;28;20224;-71
2021/06/07 03:45:33;;;;;;;4.03;3.73;;;;;23.20;101185.00;;;;2042961;29;20279;-71
2021/06/07 03:46:33;;;;;;;3.50;3.20;;;;;23.30;101197.00;;;;2034699;29;20224;-71
2021/06/07 03:47:34;;;;;;;3.93;3.63;;;;;23.30;101184.00;;;;2042461;29;20750;-71
2021/06/07 03:48:34;;;;;;;3.93;3.67;;;;;23.30;101200.00;;;;2042643;28;20219;-71
2021/06/07 03:49:35;;;;;;;3.87;3.60;;;;;23.30;101189.00;;;;2034556;29;20725;-70
2021/06/07 03:50:35;;;;;;;3.70;3.40;;;;;23.20;101186.00;;;;2036796;29;20619;-71
2021/06/07 03:51:36;;;;;;;3.73;3.53;;;;;23.30;101195.00;;;;2042629;29;20220;-71
2021/06/07 03:52:37;;;;;;;3.77;3.47;;;;;23.30;101189.00;;;;2034985;29;20775;-71
2021/06/07 03:53:38;;;;;;;4.65;4.35;;;;;23.20;101190.00;;;;2042577;29;20300;-71
2021/06/07 03:54:38;;;;;;;4.40;4.10;;;;;23.30;101186.00;;;;2043136;29;20753;-71
2021/06/07 03:55:38;;;;;;;4.10;3.80;;;;;23.30;101187.00;;;;2042726;29;21031;-71
2021/06/07 03:56:39;;;;;;;3.90;3.60;;;;;23.20;101187.00;;;;2043274;29;20688;-71
2021/06/07 03:57:39;;;;;;;4.07;3.77;;;;;23.20;101186.00;;;;2035215;29;20225;-71
2021/06/07 03:58:39;;;;;;;4.07;3.77;;;;;23.30;101187.00;;;;2042977;29;20769;-71
2021/06/07 03:59:40;;;;;;;4.13;3.80;;;;;23.30;101184.00;;;;2043802;28;20242;-71
2021/06/07 04:00:40;;;;;;;3.80;3.50;;;;;23.20;101181.00;;;;2043108;28;20227;-71
2021/06/07 04:01:41;;;;;;;4.30;4.00;;;;;23.20;101183.00;;;;2041985;29;20346;-70
2021/06/07 04:02:42;;;;;;;4.30;4.00;;;;;23.20;101189.00;;;;2034582;29;20220;-71
2021/06/07 04:03:42;;;;;;;4.40;4.10;;;;;23.20;101189.00;;;;2034699;29;20469;-71
2021/06/07 04:04:42;;;;;;;4.30;4.00;;;;;23.20;101191.00;;;;2042573;29;20586;-71
2021/06/07 04:05:43;;;;;;;4.37;4.07;;;;;23.20;101186.00;;;;2043032;28;20244;-71
2021/06/07 04:06:43;;;;;;;4.37;4.07;;;;;23.20;101193.00;;;;2043407;29;20221;-71
2021/06/07 04:07:43;;;;;;;4.07;3.77;;;;;23.20;101194.00;;;;2043313;28;20253;-71
2021/06/07 04:08:44;;;;;;;3.30;3.10;;;;;23.20;101187.00;;;;2043020;28;20284;-71
2021/06/07 04:09:44;;;;;;;4.37;4.07;;;;;23.20;101183.00;;;;2043210;28;20576;-71
2021/06/07 04:10:46;;;;;;;3.90;3.60;;;;;23.20;101192.00;;;;2038903;28;20639;-70
2021/06/07 04:11:48;;;;;;;3.92;3.63;;;;;23.30;101188.00;;;;2041715;29;20266;-70
2021/06/07 04:12:49;;;;;;;4.30;4.00;;;;;23.20;101198.00;;;;2034245;29;20277;-70
2021/06/07 04:13:50;;;;;;;4.50;4.20;;;;;23.20;101192.00;;;;2034561;29;20243;-71
2021/06/07 04:14:50;;;;;;;3.63;3.43;;;;;23.20;101192.00;;;;2042343;29;20539;-71
2021/06/07 04:15:50;;;;;;;3.47;3.20;;;;;23.20;101189.00;;;;2043073;28;20522;-71
2021/06/07 04:16:51;;;;;;;3.70;3.40;;;;;23.20;101195.00;;;;2043092;28;20232;-71
2021/06/07 04:17:54;;;;;;;4.70;4.40;;;;;23.20;101197.00;;;;2043211;28;20239;-71
2021/06/07 04:18:54;;;;;;;4.20;3.90;;;;;23.20;101193.00;;;;2043006;28;20224;-71
2021/06/07 04:19:54;;;;;;;3.87;3.67;;;;;23.20;101196.00;;;;2044032;28;20364;-70
2021/06/07 04:20:55;;;;;;;4.13;3.83;;;;;23.20;101199.00;;;;2045970;28;20224;-71
2021/06/07 04:21:55;;;;;;;4.47;4.17;;;;;23.20;101196.00;;;;2045755;28;20224;-71
2021/06/07 04:22:56;;;;;;;4.43;4.03;;;;;23.20;101172.00;;;;2044126;28;20232;-71
2021/06/07 04:23:56;;;;;;;4.20;3.90;;;;;23.20;101206.00;;;;2042472;29;20216;-71
2021/06/07 04:24:56;;;;;;;4.67;4.27;;;;;23.20;101192.00;;;;2035211;29;20244;-70
2021/06/07 04:25:57;;;;;;;4.20;3.90;;;;;23.20;101192.00;;;;2042910;29;20224;-71
2021/06/07 04:26:57;;;;;;;4.60;4.23;;;;;23.20;101197.00;;;;2035100;29;20735;-71
2021/06/07 04:27:58;;;;;;;4.20;3.90;;;;;23.20;101198.00;;;;2042874;29;20228;-71
2021/06/07 04:28:58;;;;;;;4.67;4.37;;;;;23.20;101194.00;;;;2042513;29;20217;-70
2021/06/07 04:29:58;;;;;;;4.63;4.33;;;;;23.20;101196.00;;;;2042416;29;20220;-70
2021/06/07 04:31:00;;;;;;;4.40;4.10;;;;;23.20;101190.00;;;;2041339;29;20231;-71
2021/06/07 04:32:00;;;;;;;4.47;4.18;;;;;23.20;101201.00;;;;2042553;29;20220;-70
2021/06/07 04:33:01;;;;;;;5.07;4.67;;;;;23.20;101190.00;;;;2043204;28;20679;-70
2021/06/07 04:34:01;;;;;;;4.27;3.97;;;;;23.20;101193.00;;;;2041396;29;20727;-70
2021/06/07 04:35:01;;;;;;;4.90;4.50;;;;;23.20;101183.00;;;;2034552;29;20233;-71
2021/06/07 04:36:02;;;;;;;4.40;4.10;;;;;23.20;101191.00;;;;2042348;29;20747;-71
2021/06/07 04:37:03;;;;;;;4.30;4.00;;;;;23.20;101195.00;;;;2042843;29;20223;-70
2021/06/07 04:38:04;;;;;;;4.68;4.38;;;;;23.30;101189.00;;;;2042969;29;20225;-71
2021/06/07 04:39:05;;;;;;;4.70;4.30;;;;;23.30;101199.00;;;;2042821;29;20231;-70
2021/06/07 04:40:07;;;;;;;4.32;4.03;;;;;23.30;101189.00;;;;2043649;28;20267;-71
2021/06/07 04:41:07;;;;;;;4.30;3.90;;;;;23.30;101188.00;;;;2041982;29;20228;-71
2021/06/07 04:42:08;;;;;;;4.80;4.50;;;;;23.30;101192.00;;;;2034815;29;20224;-70
2021/06/07 04:43:10;;;;;;;4.30;4.00;;;;;23.20;101197.00;;;;2042385;29;20246;-71
2021/06/07 04:44:10;;;;;;;4.40;4.10;;;;;23.30;101198.00;;;;2042320;29;20220;-71
2021/06/07 04:45:11;;;;;;;4.67;4.37;;;;;23.30;101195.00;;;;2034555;29;21097;-71
2021/06/07 04:46:11;;;;;;;4.83;4.47;;;;;23.20;101188.00;;;;2042285;29;20260;-71
2021/06/07 04:47:12;;;;;;;4.10;3.80;;;;;23.30;101200.00;;;;2042970;28;20228;-71
2021/06/07 04:48:12;;;;;;;4.43;4.13;;;;;23.20;101197.00;;;;2043305;28;20221;-71
2021/06/07 04:49:12;;;;;;;4.60;4.30;;;;;23.20;101195.00;;;;2042769;29;20239;-70
2021/06/07 04:50:13;;;;;;;4.30;3.90;;;;;23.20;101201.00;;;;2045178;29;20217;-70
2021/06/07 04:51:14;;;;;;;4.37;4.07;;;;;23.20;101197.00;;;;2043389;29;20307;-70
2021/06/07 04:52:14;;;;;;;4.77;4.47;;;;;23.20;101196.00;;;;2043517;29;20494;-71
2021/06/07 04:53:14;;;;;;;4.87;4.50;;;;;23.20;101203.00;;;;2043104;28;20211;-71
2021/06/07 04:54:15;;;;;;;4.40;4.10;;;;;23.20;101197.00;;;;2042869;28;20279;-71
2021/06/07 04:55:15;;;;;;;4.47;4.17;;;;;23.20;101165.00;;;;2042079;28;20224;-71
2021/06/07 04:56:15;;;;;;;4.73;4.43;;;;;23.30;101199.00;;;;2042406;28;20607;-71
2021/06/07 04:57:16;;;;;;;4.60;4.20;;;;;23.20;101194.00;;;;2042352;28;20646;-70
2021/06/07 04:58:18;;;;;;;4.40;4.10;;;;;23.20;101193.00;;;;2042727;28;21222;-70
2021/06/07 04:59:19;;;;;;;4.70;4.40;;;;;23.20;101201.00;;;;2032839;29;20612;-71
2021/06/07 05:00:19;;;;;;;4.57;4.27;;;;;23.20;101178.00;;;;2034390;29;20221;-70
2021/06/07 05:01:20;;;;;;;4.10;3.80;;;;;23.20;101197.00;;;;2041520;29;20701;-70